sensor_id;sensor_type;location;lat;lon;timestamp;pressure;altitude;pressure_sealevel;temperature;humidity
3697;BME280;60662;48.810;8.872;2023-04-03T07:50:20;97394.03;;;4.15;68.35
3697;BME280;60662;48.810;8.872;2023-04-03T07:51:22;97383.59;;;4.24;68.21
3697;BME280;60662;48.810;8.872;2023-04-03T07:52:23;97402.53;;;4.28;67.67
3697;BME280;60662;48.810;8.872;2023-04-03T07:53:25;97388.47;;;4.60;67.09
3697;BME280;60662;48.810;8.872;2023-04-03T07:54:26;97390.19;;;4.61;67.48
3697;BME280;60662;48.810;8.872;2023-04-03T07:56:16;97400.50;;;4.67;66.99
3697;BME280;60662;48.810;8.872;2023-04-03T07:57:18;97398.69;;;4.77;65.61
3697;BME280;60662;48.810;8.872;2023-04-03T07:58:22;97389.63;;;5.18;64.59
3697;BME280;60662;48.810;8.872;2023-04-03T07:59:24;97401.50;;;5.37;64.11
3697;BME280;60662;48.810;8.872;2023-04-03T08:00:26;97393.16;;;5.12;65.46
3697;BME280;60662;48.810;8.872;2023-04-03T08:01:27;97385.19;;;5.29;64.75
3697;BME280;60662;48.810;8.872;2023-04-03T08:22:58;97410.78;;;4.74;66.69
3697;BME280;60662;48.810;8.872;2023-04-03T08:23:59;97413.00;;;5.10;66.98
3697;BME280;60662;48.810;8.872;2023-04-03T08:25:01;97409.66;;;5.03;65.98
3697;BME280;60662;48.810;8.872;2023-04-03T08:26:10;97413.50;;;5.46;66.50
3697;BME280;60662;48.810;8.872;2023-04-03T08:27:12;97413.47;;;5.48;64.65
3697;BME280;60662;48.810;8.872;2023-04-03T08:28:13;97415.66;;;5.80;64.88
3697;BME280;60662;48.810;8.872;2023-04-03T08:29:15;97400.09;;;5.79;64.34
3697;BME280;60662;48.810;8.872;2023-04-03T08:30:17;97405.94;;;5.99;64.22
3697;BME280;60662;48.810;8.872;2023-04-03T08:31:19;97411.84;;;6.08;64.61
3697;BME280;60662;48.810;8.872;2023-04-03T08:32:21;97401.53;;;6.58;63.64
3697;BME280;60662;48.810;8.872;2023-04-03T08:33:23;97401.53;;;6.59;62.54
3697;BME280;60662;48.810;8.872;2023-04-03T08:34:24;97415.72;;;6.91;62.28
3697;BME280;60662;48.810;8.872;2023-04-03T08:35:26;97403.09;;;7.18;61.70
3697;BME280;60662;48.810;8.872;2023-04-03T08:36:29;97407.38;;;7.21;61.67
3697;BME280;60662;48.810;8.872;2023-04-03T08:37:30;97406.97;;;6.95;62.06
3697;BME280;60662;48.810;8.872;2023-04-03T08:49:37;97410.22;;;5.30;65.37
3697;BME280;60662;48.810;8.872;2023-04-03T08:50:47;97415.44;;;5.96;64.99
3697;BME280;60662;48.810;8.872;2023-04-03T08:51:54;97388.88;;;6.41;64.08
3697;BME280;60662;48.810;8.872;2023-04-03T08:52:58;97412.19;;;6.44;63.98
3697;BME280;60662;48.810;8.872;2023-04-03T08:54:20;97409.06;;;6.75;63.49
3697;BME280;60662;48.810;8.872;2023-04-03T08:55:27;97409.66;;;7.36;61.85
3697;BME280;60662;48.810;8.872;2023-04-03T08:56:30;97410.28;;;8.29;59.83
3697;BME280;60662;48.810;8.872;2023-04-03T08:57:40;97409.22;;;8.75;58.76
3697;BME280;60662;48.810;8.872;2023-04-03T08:58:58;97413.34;;;8.10;60.03
3697;BME280;60662;48.810;8.872;2023-04-03T09:00:15;97404.19;;;9.02;57.80
3697;BME280;60662;48.810;8.872;2023-04-03T09:01:35;97411.38;;;8.94;57.56
3697;BME280;60662;48.810;8.872;2023-04-03T09:02:43;97411.06;;;9.05;57.10
3697;BME280;60662;48.810;8.872;2023-04-03T09:03:48;97399.28;;;8.90;58.22
3697;BME280;60662;48.810;8.872;2023-04-03T09:04:49;97411.72;;;8.78;57.95
3697;BME280;60662;48.810;8.872;2023-04-03T09:05:56;97417.47;;;8.58;57.88
3697;BME280;60662;48.810;8.872;2023-04-03T09:07:03;97408.88;;;8.53;58.26
3697;BME280;60662;48.810;8.872;2023-04-03T09:08:24;97415.56;;;7.87;58.43
3697;BME280;60662;48.810;8.872;2023-04-03T09:09:39;97421.06;;;7.73;59.79
3697;BME280;60662;48.810;8.872;2023-04-03T09:10:42;97415.72;;;8.20;59.15
3697;BME280;60662;48.810;8.872;2023-04-03T09:14:26;97421.06;;;8.13;59.07
3697;BME280;60662;48.810;8.872;2023-04-03T09:15:29;97407.50;;;7.99;59.69
3697;BME280;60662;48.810;8.872;2023-04-03T09:16:56;97419.50;;;7.64;59.99
3697;BME280;60662;48.810;8.872;2023-04-03T09:21:48;97412.66;;;8.40;56.63
3697;BME280;60662;48.810;8.872;2023-04-03T09:22:50;97408.41;;;8.73;56.88
3697;BME280;60662;48.810;8.872;2023-04-03T09:23:56;97412.63;;;8.41;57.90
3697;BME280;60662;48.810;8.872;2023-04-03T09:25:12;97415.84;;;8.13;57.28
3697;BME280;60662;48.810;8.872;2023-04-03T09:26:18;97411.38;;;7.37;58.06
3697;BME280;60662;48.810;8.872;2023-04-03T09:27:20;97416.59;;;7.37;58.25
3697;BME280;60662;48.810;8.872;2023-04-03T09:28:22;97424.25;;;7.43;58.59
3697;BME280;60662;48.810;8.872;2023-04-03T09:29:24;97415.31;;;7.57;58.46
3697;BME280;60662;48.810;8.872;2023-04-03T09:30:26;97414.56;;;7.51;58.32
3697;BME280;60662;48.810;8.872;2023-04-03T09:31:40;97412.38;;;7.31;57.84
3697;BME280;60662;48.810;8.872;2023-04-03T09:32:49;97423.53;;;6.90;58.10
3697;BME280;60662;48.810;8.872;2023-04-03T09:33:59;97414.50;;;7.09;58.33
3697;BME280;60662;48.810;8.872;2023-04-03T09:36:45;97421.50;;;7.06;58.09
3697;BME280;60662;48.810;8.872;2023-04-03T09:37:49;97422.09;;;7.22;58.73
3697;BME280;60662;48.810;8.872;2023-04-03T09:39:07;97416.91;;;7.20;58.09
3697;BME280;60662;48.810;8.872;2023-04-03T09:41:27;97414.25;;;6.75;59.32
3697;BME280;60662;48.810;8.872;2023-04-03T09:42:30;97422.69;;;6.88;58.55
3697;BME280;60662;48.810;8.872;2023-04-03T09:43:34;97416.41;;;6.99;58.26
3697;BME280;60662;48.810;8.872;2023-04-03T09:44:38;97415.63;;;7.43;58.01
3697;BME280;60662;48.810;8.872;2023-04-03T09:45:39;97424.88;;;7.56;58.21
3697;BME280;60662;48.810;8.872;2023-04-03T09:46:41;97423.41;;;7.43;58.52
3697;BME280;60662;48.810;8.872;2023-04-03T09:47:44;97415.78;;;7.33;58.48
3697;BME280;60662;48.810;8.872;2023-04-03T09:48:56;97417.94;;;7.11;58.82
3697;BME280;60662;48.810;8.872;2023-04-03T09:50:21;97417.09;;;7.09;60.23
3697;BME280;60662;48.810;8.872;2023-04-03T09:51:27;97419.03;;;6.98;58.61
3697;BME280;60662;48.810;8.872;2023-04-03T09:52:29;97419.44;;;6.75;59.11
3697;BME280;60662;48.810;8.872;2023-04-03T09:53:43;97408.91;;;6.32;59.70
3697;BME280;60662;48.810;8.872;2023-04-03T09:54:45;97420.56;;;6.60;59.20
3697;BME280;60662;48.810;8.872;2023-04-03T09:55:46;97418.00;;;6.58;60.03
3697;BME280;60662;48.810;8.872;2023-04-03T09:56:52;97398.16;;;6.52;59.70
3697;BME280;60662;48.810;8.872;2023-04-03T09:58:00;97415.34;;;6.63;59.17
3697;BME280;60662;48.810;8.872;2023-04-03T10:00:03;97415.66;;;6.43;58.22
3697;BME280;60662;48.810;8.872;2023-04-03T10:01:20;97411.94;;;6.01;59.45
3697;BME280;60662;48.810;8.872;2023-04-03T10:02:37;97410.13;;;6.07;60.14
3697;BME280;60662;48.810;8.872;2023-04-03T10:03:40;97411.31;;;5.81;59.89
3697;BME280;60662;48.810;8.872;2023-04-03T10:04:47;97410.34;;;5.89;59.77
3697;BME280;60662;48.810;8.872;2023-04-03T10:06:23;97415.19;;;6.16;59.64
3697;BME280;60662;48.810;8.872;2023-04-03T10:07:34;97411.66;;;6.20;59.53
3697;BME280;60662;48.810;8.872;2023-04-03T10:08:37;97411.31;;;5.81;59.84
3697;BME280;60662;48.810;8.872;2023-04-03T10:09:38;97405.28;;;5.79;60.58
3697;BME280;60662;48.810;8.872;2023-04-03T10:10:48;97413.69;;;5.96;61.08
3697;BME280;60662;48.810;8.872;2023-04-03T10:12:10;97403.06;;;6.16;61.01
3697;BME280;60662;48.810;8.872;2023-04-03T10:13:18;97405.72;;;6.13;60.29
3697;BME280;60662;48.810;8.872;2023-04-03T10:14:22;97410.44;;;5.82;60.62
3697;BME280;60662;48.810;8.872;2023-04-03T10:15:25;97406.41;;;5.61;61.04
3697;BME280;60662;48.810;8.872;2023-04-03T10:17:57;97400.59;;;5.40;61.36
3697;BME280;60662;48.810;8.872;2023-04-03T10:19:05;97398.13;;;6.01;61.38
3697;BME280;60662;48.810;8.872;2023-04-03T10:20:33;97404.63;;;6.28;61.51
3697;BME280;60662;48.810;8.872;2023-04-03T10:23:17;97402.09;;;6.25;58.48
3697;BME280;60662;48.810;8.872;2023-04-03T10:24:25;97396.88;;;5.63;55.60
3697;BME280;60662;48.810;8.872;2023-04-03T10:25:40;97390.19;;;5.45;54.84
3697;BME280;60662;48.810;8.872;2023-04-03T10:26:59;97400.09;;;5.79;56.16
3697;BME280;60662;48.810;8.872;2023-04-03T10:29:40;97396.66;;;5.78;59.06
3697;BME280;60662;48.810;8.872;2023-04-03T10:34:56;97393.56;;;6.15;56.44
3697;BME280;60662;48.810;8.872;2023-04-03T10:37:30;97397.13;;;6.10;59.07
3697;BME280;60662;48.810;8.872;2023-04-03T10:40:24;97398.84;;;6.09;58.29
3697;BME280;60662;48.810;8.872;2023-04-03T10:42:08;97403.00;;;6.23;58.08
3697;BME280;60662;48.810;8.872;2023-04-03T10:43:27;97402.25;;;6.13;58.92
3697;BME280;60662;48.810;8.872;2023-04-03T10:46:15;97390.34;;;6.56;58.70
3697;BME280;60662;48.810;8.872;2023-04-03T10:47:24;97404.50;;;6.37;58.18
3697;BME280;60662;48.810;8.872;2023-04-03T10:48:48;97399.28;;;6.39;56.47
3697;BME280;60662;48.810;8.872;2023-04-03T10:51:29;97399.31;;;6.36;55.51
3697;BME280;60662;48.810;8.872;2023-04-03T10:55:32;97400.44;;;6.18;54.16
3697;BME280;60662;48.810;8.872;2023-04-03T10:58:03;97405.63;;;6.18;57.88
3697;BME280;60662;48.810;8.872;2023-04-03T10:59:13;97404.03;;;6.11;59.58
3697;BME280;60662;48.810;8.872;2023-04-03T11:00:21;97410.72;;;6.26;60.21
3697;BME280;60662;48.810;8.872;2023-04-03T11:01:31;97405.75;;;6.10;60.45
3697;BME280;60662;48.810;8.872;2023-04-03T11:02:51;97410.28;;;5.93;60.67
3697;BME280;60662;48.810;8.872;2023-04-03T11:03:56;97403.41;;;5.90;60.76
3697;BME280;60662;48.810;8.872;2023-04-03T11:05:08;97404.22;;;5.94;61.03
3697;BME280;60662;48.810;8.872;2023-04-03T11:06:17;97405.06;;;5.99;60.59
3697;BME280;60662;48.810;8.872;2023-04-03T11:07:26;97407.50;;;6.10;60.25
3697;BME280;60662;48.810;8.872;2023-04-03T11:08:37;97407.69;;;5.94;59.93
3697;BME280;60662;48.810;8.872;2023-04-03T11:09:43;97403.19;;;6.09;59.72
3697;BME280;60662;48.810;8.872;2023-04-03T11:10:48;97406.47;;;6.20;59.23
3697;BME280;60662;48.810;8.872;2023-04-03T11:11:55;97405.56;;;6.23;59.12
3697;BME280;60662;48.810;8.872;2023-04-03T11:13:06;97405.53;;;6.26;58.77
3697;BME280;60662;48.810;8.872;2023-04-03T11:14:28;97401.31;;;6.17;59.45
3697;BME280;60662;48.810;8.872;2023-04-03T11:15:32;97406.78;;;5.97;59.52
3697;BME280;60662;48.810;8.872;2023-04-03T11:16:38;97398.16;;;5.99;60.21
3697;BME280;60662;48.810;8.872;2023-04-03T11:18:05;97395.94;;;5.68;59.85
3697;BME280;60662;48.810;8.872;2023-04-03T11:19:17;97398.28;;;5.87;60.72
3697;BME280;60662;48.810;8.872;2023-04-03T11:20:30;97403.28;;;6.02;60.71
3697;BME280;60662;48.810;8.872;2023-04-03T11:21:39;97393.94;;;5.87;60.55
3697;BME280;60662;48.810;8.872;2023-04-03T11:22:43;97398.31;;;5.85;61.34
3697;BME280;60662;48.810;8.872;2023-04-03T11:23:47;97394.03;;;5.81;61.15
3697;BME280;60662;48.810;8.872;2023-04-03T11:24:58;97397.59;;;5.72;61.23
3697;BME280;60662;48.810;8.872;2023-04-03T11:26:10;97386.44;;;5.67;61.21
3697;BME280;60662;48.810;8.872;2023-04-03T12:41:42;97346.34;;;5.92;57.79
3697;BME280;60662;48.810;8.872;2023-04-03T12:42:58;97357.19;;;6.21;58.17
3697;BME280;60662;48.810;8.872;2023-04-03T12:44:12;97348.47;;;6.26;58.63
3697;BME280;60662;48.810;8.872;2023-04-03T12:45:20;97352.75;;;6.28;58.02
3697;BME280;60662;48.810;8.872;2023-04-03T12:46:23;97358.59;;;6.40;58.00
3697;BME280;60662;48.810;8.872;2023-04-03T12:47:35;97353.97;;;6.60;57.32
3697;BME280;60662;48.810;8.872;2023-04-03T12:48:54;97352.25;;;6.58;56.50
3697;BME280;60662;48.810;8.872;2023-04-03T12:49:57;97349.53;;;6.65;56.38
3697;BME280;60662;48.810;8.872;2023-04-03T12:51:00;97350.00;;;6.88;55.67
3697;BME280;60662;48.810;8.872;2023-04-03T12:52:05;97343.72;;;6.98;55.38
3697;BME280;60662;48.810;8.872;2023-04-03T12:53:13;97350.25;;;7.19;55.08
3697;BME280;60662;48.810;8.872;2023-04-03T12:54:20;97347.72;;;7.16;53.88
3697;BME280;60662;48.810;8.872;2023-04-03T12:55:23;97345.06;;;7.19;53.06
3697;BME280;60662;48.810;8.872;2023-04-03T12:56:27;97345.72;;;7.30;52.88
3697;BME280;60662;48.810;8.872;2023-04-03T12:57:33;97340.28;;;7.41;52.53
3697;BME280;60662;48.810;8.872;2023-04-03T12:58:34;97349.63;;;7.50;52.11
3697;BME280;60662;48.810;8.872;2023-04-03T12:59:36;97347.03;;;7.50;51.94
3697;BME280;60662;48.810;8.872;2023-04-03T13:00:39;97343.16;;;7.70;51.48
3697;BME280;60662;48.810;8.872;2023-04-03T13:01:40;97333.47;;;7.35;50.91
3697;BME280;60662;48.810;8.872;2023-04-03T13:02:44;97338.53;;;7.82;51.21
3697;BME280;60662;48.810;8.872;2023-04-03T13:03:55;97333.38;;;8.17;50.78
3697;BME280;60662;48.810;8.872;2023-04-03T13:04:59;97338.13;;;7.99;50.32
3697;BME280;60662;48.810;8.872;2023-04-03T13:06:06;97344.00;;;7.70;50.18
3697;BME280;60662;48.810;8.872;2023-04-03T13:07:19;97333.22;;;7.87;50.08
3697;BME280;60662;48.810;8.872;2023-04-03T13:08:21;97306.63;;;7.76;50.48
3697;BME280;60662;48.810;8.872;2023-04-03T13:10:27;97331.41;;;8.96;49.71
3697;BME280;60662;48.810;8.872;2023-04-03T13:11:37;97327.06;;;8.96;48.77
3697;BME280;60662;48.810;8.872;2023-04-03T13:12:53;97338.97;;;8.38;47.63
3697;BME280;60662;48.810;8.872;2023-04-03T13:14:03;97341.69;;;8.33;48.79
3697;BME280;60662;48.810;8.872;2023-04-03T13:16:21;97343.25;;;8.04;48.72
3697;BME280;60662;48.810;8.872;2023-04-03T13:17:24;97332.13;;;7.96;49.39
3697;BME280;60662;48.810;8.872;2023-04-03T13:18:31;97330.97;;;7.72;48.86
3697;BME280;60662;48.810;8.872;2023-04-03T13:19:33;97289.84;;;7.50;48.74
3697;BME280;60662;48.810;8.872;2023-04-03T13:20:35;97308.16;;;7.45;49.00
3697;BME280;60662;48.810;8.872;2023-04-03T13:21:38;97340.81;;;7.57;49.69
3697;BME280;60662;48.810;8.872;2023-04-03T13:22:49;97342.50;;;7.16;49.61
3697;BME280;60662;48.810;8.872;2023-04-03T13:23:56;97343.13;;;6.35;50.17
3697;BME280;60662;48.810;8.872;2023-04-03T13:25:16;97338.50;;;7.01;51.23
3697;BME280;60662;48.810;8.872;2023-04-03T13:26:20;97342.28;;;7.28;49.88
3697;BME280;60662;48.810;8.872;2023-04-03T13:27:22;97342.88;;;6.97;51.12
3697;BME280;60662;48.810;8.872;2023-04-03T13:28:25;97344.94;;;7.25;51.40
3697;BME280;60662;48.810;8.872;2023-04-03T13:29:32;97345.72;;;7.30;50.72
3697;BME280;60662;48.810;8.872;2023-04-03T13:30:36;97337.09;;;6.83;50.47
3697;BME280;60662;48.810;8.872;2023-04-03T13:31:39;97344.22;;;7.17;50.82
3697;BME280;60662;48.810;8.872;2023-04-03T13:32:43;97335.22;;;8.13;48.71
3697;BME280;60662;48.810;8.872;2023-04-03T13:33:55;97337.84;;;8.49;47.85
3697;BME280;60662;48.810;8.872;2023-04-03T13:34:58;97326.88;;;8.35;48.76
3697;BME280;60662;48.810;8.872;2023-04-03T13:36:17;97330.94;;;8.11;49.37
3697;BME280;60662;48.810;8.872;2023-04-03T13:37:25;97332.47;;;7.82;50.89
3697;BME280;60662;48.810;8.872;2023-04-03T13:38:30;97333.59;;;7.70;50.62
3697;BME280;60662;48.810;8.872;2023-04-03T13:39:37;97307.69;;;7.25;50.25
3697;BME280;60662;48.810;8.872;2023-04-03T13:40:56;97335.88;;;7.45;50.76
3697;BME280;60662;48.810;8.872;2023-04-03T13:42:00;97344.19;;;7.18;51.46
3697;BME280;60662;48.810;8.872;2023-04-03T13:43:17;97339.63;;;7.30;51.69
3697;BME280;60662;48.810;8.872;2023-04-03T13:45:27;97335.47;;;7.21;52.92
3697;BME280;60662;48.810;8.872;2023-04-03T13:46:29;97340.84;;;7.13;52.93
3697;BME280;60662;48.810;8.872;2023-04-03T13:47:39;97332.53;;;6.96;53.59
3697;BME280;60662;48.810;8.872;2023-04-03T13:48:52;97334.69;;;6.72;53.52
3697;BME280;60662;48.810;8.872;2023-04-03T13:52:38;97332.63;;;6.41;53.31
3697;BME280;60662;48.810;8.872;2023-04-03T13:53:56;97340.72;;;6.24;52.13
3697;BME280;60662;48.810;8.872;2023-04-03T13:55:03;97338.84;;;6.32;51.96
3697;BME280;60662;48.810;8.872;2023-04-03T14:09:17;97331.66;;;6.95;52.83
3697;BME280;60662;48.810;8.872;2023-04-03T14:10:18;97326.84;;;6.77;51.85
3697;BME280;60662;48.810;8.872;2023-04-03T14:11:23;97326.84;;;6.77;52.18
3697;BME280;60662;48.810;8.872;2023-04-03T14:12:33;97330.56;;;7.09;51.78
3697;BME280;60662;48.810;8.872;2023-04-03T14:13:35;97329.09;;;6.94;52.13
3697;BME280;60662;48.810;8.872;2023-04-03T14:14:36;97330.56;;;7.09;51.53
3697;BME280;60662;48.810;8.872;2023-04-03T14:15:39;97324.28;;;7.19;51.95
3697;BME280;60662;48.810;8.872;2023-04-03T14:16:47;97335.34;;;7.27;51.42
3697;BME280;60662;48.810;8.872;2023-04-03T14:17:50;97306.53;;;6.97;50.73
3697;BME280;60662;48.810;8.872;2023-04-03T14:18:53;97326.06;;;6.70;49.80
3697;BME280;60662;48.810;8.872;2023-04-03T14:19:56;97326.69;;;6.84;50.77
3697;BME280;60662;48.810;8.872;2023-04-03T14:20:57;97324.50;;;7.08;51.56
3697;BME280;60662;48.810;8.872;2023-04-03T14:22:00;97324.38;;;7.14;51.56
3697;BME280;60662;48.810;8.872;2023-04-03T14:23:02;97323.66;;;7.08;50.00
3697;BME280;60662;48.810;8.872;2023-04-03T14:24:04;97318.19;;;6.76;48.94
3697;BME280;60662;48.810;8.872;2023-04-03T14:25:05;97321.31;;;6.94;49.25
3697;BME280;60662;48.810;8.872;2023-04-03T14:26:18;97324.75;;;6.96;49.08
3697;BME280;60662;48.810;8.872;2023-04-03T14:27:25;97322.69;;;7.12;49.83
3697;BME280;60662;48.810;8.872;2023-04-03T14:28:26;97316.94;;;6.97;49.06
3697;BME280;60662;48.810;8.872;2023-04-03T14:29:28;97317.19;;;6.83;48.29
3697;BME280;60662;48.810;8.872;2023-04-03T14:30:31;97322.63;;;6.69;48.07
3697;BME280;60662;48.810;8.872;2023-04-03T14:31:33;97321.50;;;6.83;49.25
3697;BME280;60662;48.810;8.872;2023-04-03T14:32:35;97312.72;;;6.90;49.71
3697;BME280;60662;48.810;8.872;2023-04-03T15:03:21;97302.34;;;6.43;52.44
3697;BME280;60662;48.810;8.872;2023-04-03T15:04:23;97304.66;;;6.60;50.98
3697;BME280;60662;48.810;8.872;2023-04-03T15:05:25;97297.81;;;6.54;51.85
3697;BME280;60662;48.810;8.872;2023-04-03T15:08:59;97288.78;;;6.74;51.12
3697;BME280;60662;48.810;8.872;2023-04-03T15:10:20;97296.53;;;6.77;51.55
3697;BME280;60662;48.810;8.872;2023-04-03T15:11:22;97302.41;;;6.87;50.20
3697;BME280;60662;48.810;8.872;2023-04-03T15:12:25;97299.97;;;6.79;50.49
3697;BME280;60662;48.810;8.872;2023-04-03T15:13:26;97295.38;;;6.92;50.87
3697;BME280;60662;48.810;8.872;2023-04-03T15:14:28;97301.50;;;6.90;50.51
3697;BME280;60662;48.810;8.872;2023-04-03T15:51:49;97274.59;;;5.94;50.91
3697;BME280;60662;48.810;8.872;2023-04-03T15:52:52;97296.81;;;6.62;50.93
3697;BME280;60662;48.810;8.872;2023-04-03T15:53:55;97296.56;;;6.74;49.59
3697;BME280;60662;48.810;8.872;2023-04-03T15:54:57;97292.94;;;6.84;50.10
3697;BME280;60662;48.810;8.872;2023-04-03T15:55:58;97282.69;;;6.78;49.90
3697;BME280;60662;48.810;8.872;2023-04-03T15:57:00;97283.06;;;7.44;48.94
3697;BME280;60662;48.810;8.872;2023-04-03T15:58:02;97291.91;;;7.73;47.50
3697;BME280;60662;48.810;8.872;2023-04-03T15:59:03;97278.25;;;8.01;46.98
3697;BME280;60662;48.810;8.872;2023-04-03T16:00:05;97283.31;;;8.43;47.09
3697;BME280;60662;48.810;8.872;2023-04-03T16:01:10;97288.44;;;8.46;46.57
3697;BME280;60662;48.810;8.872;2023-04-03T16:02:12;97301.84;;;7.95;46.86
3697;BME280;60662;48.810;8.872;2023-04-03T16:03:17;97300.31;;;7.84;47.00
3697;BME280;60662;48.810;8.872;2023-04-03T16:04:19;97301.13;;;7.49;47.05
3697;BME280;60662;48.810;8.872;2023-04-03T16:05:22;97296.44;;;7.26;47.49
3697;BME280;60662;48.810;8.872;2023-04-03T16:06:25;97291.88;;;7.37;47.62
